Time;durP1;ratioP1;P1;durP2;ratioP2;P2;SDS_P1;SDS_P2;PMS_P1;PMS_P2;Temp;Humidity;BMP_temperature;BMP_pressure;BME280_temperature;BME280_humidity;BME280_pressure;Samples;Min_cycle;Max_cycle;Signal;HPM_P1;HPM_P2
2020/12/30 00:05:51;;;;;;;0.23;0.23;;;5.90;99.90;;;;;;20693568;28;20558;-74
2020/12/30 00:15:54;;;;;;;0.20;0.10;;;7.00;99.90;;;;;;20691902;28;20227;-72
2020/12/30 00:25:56;;;;;;;3.30;0.83;;;6.80;99.90;;;;;;20689913;28;20195;-72
2020/12/30 00:36:00;;;;;;;3.00;0.90;;;5.90;99.90;;;;;;20691663;28;20691;-72
2020/12/30 00:46:03;;;;;;;0.40;0.23;;;4.90;99.90;;;;;;20692105;28;20601;-73
2020/12/30 00:56:08;;;;;;;0.30;0.10;;;5.50;99.90;;;;;;20692239;28;20218;-72
2020/12/30 01:06:12;;;;;;;0.20;0.10;;;6.10;99.90;;;;;;20692473;28;20541;-73
2020/12/30 01:16:15;;;;;;;0.20;0.10;;;6.10;99.90;;;;;;20689557;28;20215;-72
2020/12/30 01:26:18;;;;;;;0.20;0.10;;;6.20;99.90;;;;;;20688151;28;20959;-71
2020/12/30 01:36:21;;;;;;;0.20;0.13;;;6.50;99.90;;;;;;20701843;28;20234;-71
2020/12/30 01:46:36;;;;;;;0.20;0.10;;;6.30;99.90;;;;;;20704762;28;20521;-72
2020/12/30 01:56:40;;;;;;;0.20;0.10;;;6.00;99.90;;;;;;20703042;28;20222;-73
2020/12/30 02:06:43;;;;;;;0.20;0.10;;;6.10;99.90;;;;;;20705620;28;20222;-70
2020/12/30 02:16:51;;;;;;;0.30;0.30;;;6.00;99.90;;;;;;20702316;28;20226;-74
2020/12/30 02:26:55;;;;;;;0.20;0.10;;;6.00;99.90;;;;;;20703125;28;20193;-72
2020/12/30 02:37:02;;;;;;;0.70;0.70;;;6.20;99.90;;;;;;20701956;28;20252;-72
2020/12/30 02:47:05;;;;;;;0.20;0.10;;;5.90;99.90;;;;;;20700288;28;20210;-72
2020/12/30 02:57:08;;;;;;;0.20;0.10;;;5.70;99.90;;;;;;20697175;28;20225;-72
2020/12/30 03:07:11;;;;;;;0.20;0.10;;;5.90;99.90;;;;;;20697241;28;20226;-73
2020/12/30 03:17:14;;;;;;;0.23;0.13;;;6.00;99.90;;;;;;20693249;28;20296;-71
2020/12/30 03:27:18;;;;;;;0.20;0.10;;;6.50;99.90;;;;;;20691933;28;20212;-71
2020/12/30 03:37:20;;;;;;;0.50;0.47;;;6.40;99.90;;;;;;20693192;28;20235;-72
2020/12/30 03:47:24;;;;;;;0.20;0.20;;;6.20;99.90;;;;;;20693708;28;20244;-72
2020/12/30 03:57:27;;;;;;;0.43;0.27;;;6.40;99.90;;;;;;20693340;28;20396;-74
2020/12/30 04:07:30;;;;;;;0.30;0.30;;;6.70;99.90;;;;;;20693498;28;20238;-73
2020/12/30 04:17:33;;;;;;;0.20;0.17;;;6.50;99.90;;;;;;20691635;28;20223;-73
2020/12/30 04:27:36;;;;;;;0.20;0.20;;;6.70;99.90;;;;;;20692021;28;20209;-84
2020/12/30 04:37:39;;;;;;;0.20;0.20;;;6.80;99.90;;;;;;20692148;28;20218;-82
2020/12/30 04:47:47;;;;;;;0.20;0.20;;;6.10;99.90;;;;;;20691119;28;20668;-74
2020/12/30 04:58:04;;;;;;;0.20;0.10;;;5.60;99.90;;;;;;20690187;28;20226;-76
2020/12/30 05:08:10;;;;;;;0.40;0.33;;;5.50;99.90;;;;;;20701979;28;20632;-76
2020/12/30 05:18:12;;;;;;;0.20;0.20;;;5.70;99.90;;;;;;20704334;28;20230;-72
2020/12/30 05:28:16;;;;;;;0.20;0.10;;;5.70;99.90;;;;;;20704250;28;20901;-74
2020/12/30 05:38:27;;;;;;;0.30;0.30;;;5.60;99.90;;;;;;20703950;28;20249;-72
2020/12/30 05:48:35;;;;;;;0.30;0.30;;;5.60;99.90;;;;;;20703502;28;20469;-71
2020/12/30 05:58:43;;;;;;;0.57;0.50;;;5.80;99.90;;;;;;20704167;28;20226;-72
2020/12/30 06:08:49;;;;;;;0.20;0.20;;;5.70;99.90;;;;;;20702330;28;20676;-74
2020/12/30 06:18:56;;;;;;;0.30;0.27;;;5.50;99.90;;;;;;20700523;28;20322;-74
2020/12/30 06:29:09;;;;;;;0.20;0.10;;;5.40;99.90;;;;;;20700178;28;20205;-72
2020/12/30 06:39:20;;;;;;;0.20;0.10;;;5.80;99.90;;;;;;20697009;28;20820;-71
2020/12/30 06:49:23;;;;;;;0.20;0.20;;;5.60;99.90;;;;;;20696942;28;20377;-75
2020/12/30 06:59:27;;;;;;;0.20;0.10;;;5.30;99.90;;;;;;20694158;28;20237;-75
2020/12/30 07:09:32;;;;;;;0.20;0.20;;;5.10;99.90;;;;;;20696269;28;20242;-73
2020/12/30 07:19:36;;;;;;;0.20;0.10;;;5.60;99.90;;;;;;20696091;28;20218;-71
2020/12/30 07:29:40;;;;;;;0.50;0.50;;;5.30;99.90;;;;;;20696145;28;20203;-74
2020/12/30 07:39:43;;;;;;;0.20;0.20;;;5.40;99.90;;;;;;20694556;28;20238;-74
2020/12/30 07:49:47;;;;;;;0.20;0.10;;;5.60;99.90;;;;;;20695717;28;20207;-74
2020/12/30 07:59:51;;;;;;;0.20;0.20;;;5.80;99.90;;;;;;20695836;28;20312;-80
2020/12/30 08:09:57;;;;;;;0.67;0.40;;;6.00;99.90;;;;;;20696229;28;20211;-81
2020/12/30 08:20:00;;;;;;;0.20;0.10;;;5.60;99.90;;;;;;20700885;28;20219;-78
2020/12/30 08:30:04;;;;;;;0.50;0.30;;;5.60;99.90;;;;;;20698391;28;20191;-83
2020/12/30 08:40:14;;;;;;;1.90;0.90;;;5.70;99.90;;;;;;20699026;28;20221;-80
2020/12/30 08:50:20;;;;;;;0.83;0.20;;;6.00;99.90;;;;;;20722013;28;20266;-79
2020/12/30 09:00:24;;;;;;;1.90;1.20;;;6.20;99.90;;;;;;20706357;28;20235;-72
2020/12/30 09:10:33;;;;;;;0.73;0.40;;;6.30;99.90;;;;;;20689641;28;20539;-78
2020/12/30 09:20:36;;;;;;;0.47;0.40;;;6.80;99.90;;;;;;20686431;28;20227;-81
2020/12/30 09:30:40;;;;;;;0.20;0.10;;;7.10;99.90;;;;;;20702801;28;20198;-76
2020/12/30 09:40:44;;;;;;;0.30;0.30;;;7.50;99.90;;;;;;20704794;28;20227;-78
2020/12/30 09:50:48;;;;;;;0.40;0.30;;;8.00;99.90;;;;;;20701676;28;20183;-76
2020/12/30 10:00:51;;;;;;;0.30;0.30;;;8.40;99.90;;;;;;20702175;28;20242;-73
2020/12/30 10:10:54;;;;;;;0.43;0.20;;;8.60;99.90;;;;;;20706279;28;20201;-82
2020/12/30 10:20:57;;;;;;;4.13;1.10;;;8.90;99.90;;;;;;20709089;28;20223;-84
2020/12/30 10:31:00;;;;;;;0.67;0.67;;;9.20;99.90;;;;;;20710759;28;20195;-81
2020/12/30 10:41:03;;;;;;;0.20;0.20;;;9.70;99.90;;;;;;22398743;22;20573;-86
2020/12/30 10:51:10;;;;;;;0.20;0.10;;;10.50;99.90;;;;;;20711045;28;20663;-81
2020/12/30 11:01:14;;;;;;;0.20;0.10;;;10.90;99.90;;;;;;20710586;28;20230;-81
2020/12/30 11:11:17;;;;;;;0.20;0.10;;;11.40;99.90;;;;;;20706322;28;20206;-85
2020/12/30 11:21:20;;;;;;;0.20;0.20;;;11.70;99.90;;;;;;20672931;28;20222;-77
2020/12/30 11:31:23;;;;;;;8.27;1.67;;;12.00;99.90;;;;;;20703224;28;20268;-74
2020/12/30 11:41:26;;;;;;;0.50;0.50;;;12.80;99.90;;;;;;20705222;28;20292;-78
2020/12/30 11:51:30;;;;;;;0.97;0.50;;;12.60;99.90;;;;;;20704178;28;20191;-77
2020/12/30 12:01:33;;;;;;;1.43;0.77;;;13.40;99.90;;;;;;20704080;28;20222;-77
2020/12/30 12:11:36;;;;;;;1.70;1.57;;;13.60;99.90;;;;;;20704942;28;20205;-80
2020/12/30 12:21:40;;;;;;;1.63;0.33;;;14.40;99.90;;;;;;20690905;28;20420;-73
2020/12/30 12:31:44;;;;;;;0.20;0.20;;;14.80;99.90;;;;;;20703091;28;20201;-75
2020/12/30 12:41:46;;;;;;;0.77;0.27;;;14.90;99.90;;;;;;20702847;28;20237;-78
2020/12/30 12:51:51;;;;;;;0.53;0.43;;;15.60;99.90;;;;;;20703421;28;20191;-73
2020/12/30 13:02:03;;;;;;;3.90;1.17;;;15.90;99.90;;;;;;20703270;28;20226;-69
2020/12/30 13:12:07;;;;;;;0.20;0.10;;;15.90;99.90;;;;;;20700023;28;20241;-76
2020/12/30 13:22:10;;;;;;;0.20;0.20;;;16.00;99.90;;;;;;20695460;28;20559;-79
2020/12/30 13:32:13;;;;;;;0.77;0.43;;;15.00;99.90;;;;;;20714308;28;20940;-78
2020/12/30 13:42:16;;;;;;;0.50;0.50;;;13.90;99.90;;;;;;20711747;28;20598;-76
2020/12/30 13:52:20;;;;;;;0.80;0.73;;;14.00;99.90;;;;;;20715701;28;20194;-79
2020/12/30 14:02:22;;;;;;;0.40;0.30;;;14.20;99.90;;;;;;20711921;28;20258;-84
2020/12/30 14:12:26;;;;;;;0.20;0.20;;;14.60;99.90;;;;;;20710188;28;20273;-77
2020/12/30 14:22:28;;;;;;;0.97;0.30;;;13.70;99.90;;;;;;20714688;28;20242;-80
2020/12/30 14:32:32;;;;;;;0.30;0.30;;;13.10;99.90;;;;;;20712826;28;20195;-82
2020/12/30 14:42:34;;;;;;;0.27;0.20;;;13.00;99.90;;;;;;20709982;28;20245;-76
2020/12/30 14:52:38;;;;;;;1.43;0.93;;;12.50;99.90;;;;;;20707263;28;20206;-77
2020/12/30 15:02:41;;;;;;;0.43;0.43;;;12.30;99.90;;;;;;20709767;28;20269;-75
2020/12/30 15:12:44;;;;;;;0.33;0.20;;;12.10;99.90;;;;;;20711106;28;20655;-77
2020/12/30 15:22:47;;;;;;;0.80;0.47;;;12.10;99.90;;;;;;20711883;28;20723;-74
2020/12/30 15:32:50;;;;;;;0.23;0.20;;;11.70;99.90;;;;;;20708190;28;20193;-77
2020/12/30 15:42:53;;;;;;;0.40;0.30;;;11.50;99.90;;;;;;20704561;28;20238;-81
2020/12/30 15:52:56;;;;;;;0.20;0.10;;;11.30;99.90;;;;;;20708417;28;20639;-84
2020/12/30 16:02:59;;;;;;;0.43;0.43;;;11.10;99.90;;;;;;20708030;28;20230;-76
2020/12/30 16:13:02;;;;;;;0.67;0.57;;;11.00;99.90;;;;;;20703477;28;20660;-80
2020/12/30 16:23:04;;;;;;;0.50;0.50;;;10.90;99.90;;;;;;20693921;28;20370;-85
2020/12/30 16:33:08;;;;;;;0.40;0.37;;;10.60;99.90;;;;;;20697725;28;20519;-73
2020/12/30 16:43:10;;;;;;;0.20;0.17;;;10.60;99.90;;;;;;20700718;28;20226;-75
2020/12/30 16:53:14;;;;;;;0.37;0.30;;;10.80;99.90;;;;;;20711686;28;20618;-82
2020/12/30 17:03:17;;;;;;;0.57;0.57;;;10.80;99.90;;;;;;20719379;28;20365;-74
2020/12/30 17:13:20;;;;;;;0.63;0.40;;;10.60;99.90;;;;;;20724419;28;20603;-80
2020/12/30 17:23:23;;;;;;;0.47;0.37;;;10.70;99.90;;;;;;20717650;28;20241;-84
2020/12/30 17:33:26;;;;;;;0.20;0.20;;;10.70;99.90;;;;;;20716121;28;20191;-81
2020/12/30 17:43:31;;;;;;;0.20;0.10;;;10.60;99.90;;;;;;20690259;28;20273;-72
2020/12/30 17:53:35;;;;;;;1.07;0.67;;;10.50;99.90;;;;;;20731679;28;20191;-76
2020/12/30 18:03:38;;;;;;;0.37;0.30;;;10.50;99.90;;;;;;20708018;28;20234;-78
2020/12/30 18:13:42;;;;;;;0.20;0.20;;;10.50;99.90;;;;;;20708298;28;20210;-73
2020/12/30 18:23:45;;;;;;;0.43;0.37;;;10.40;99.90;;;;;;20710533;28;20250;-76
2020/12/30 18:33:49;;;;;;;0.30;0.30;;;10.30;99.90;;;;;;20706322;28;20362;-71
2020/12/30 18:43:53;;;;;;;0.50;0.37;;;10.20;99.90;;;;;;20707055;28;21123;-73
2020/12/30 18:53:57;;;;;;;1.23;1.10;;;10.20;99.90;;;;;;20701046;28;20548;-72
2020/12/30 19:04:00;;;;;;;0.27;0.27;;;10.30;99.90;;;;;;20673886;28;20222;-72
2020/12/30 19:14:03;;;;;;;0.20;0.20;;;10.30;99.90;;;;;;20680369;28;20547;-71
2020/12/30 19:24:05;;;;;;;0.40;0.30;;;10.20;99.90;;;;;;20623458;28;20262;-71
2020/12/30 19:34:09;;;;;;;3.23;1.13;;;10.00;99.90;;;;;;20693816;28;20209;-72
2020/12/30 19:44:11;;;;;;;1.60;1.23;;;10.10;99.90;;;;;;20698525;28;20750;-71
2020/12/30 19:54:15;;;;;;;3.13;1.63;;;9.90;99.90;;;;;;20701192;28;20233;-72
2020/12/30 20:04:17;;;;;;;6.90;1.90;;;9.70;99.90;;;;;;20700348;28;20222;-72
2020/12/30 20:14:21;;;;;;;2.93;2.27;;;9.30;99.90;;;;;;20698943;28;20183;-73
2020/12/30 20:24:23;;;;;;;1.47;1.10;;;8.80;99.90;;;;;;20701878;28;20490;-73
2020/12/30 20:34:27;;;;;;;4.37;1.13;;;8.40;99.90;;;;;;20664563;28;20198;-73
2020/12/30 20:44:29;;;;;;;1.17;0.80;;;8.30;99.90;;;;;;20679537;28;20296;-73
2020/12/30 20:54:33;;;;;;;1.27;1.17;;;7.80;99.90;;;;;;20718073;28;20198;-73
2020/12/30 21:04:35;;;;;;;9.13;2.00;;;7.90;99.90;;;;;;20715035;28;20195;-73
2020/12/30 21:14:39;;;;;;;2.20;1.47;;;8.00;99.90;;;;;;20714594;28;20683;-74
2020/12/30 21:24:41;;;;;;;0.30;0.30;;;7.90;99.90;;;;;;20713467;28;20655;-74
2020/12/30 21:34:46;;;;;;;1.80;0.60;;;7.60;99.90;;;;;;20686695;28;20191;-72
2020/12/30 21:44:49;;;;;;;0.30;0.30;;;7.30;99.90;;;;;;20712110;28;20573;-71
2020/12/30 21:54:52;;;;;;;0.57;0.57;;;7.90;99.90;;;;;;20712360;28;20210;-73
2020/12/30 22:04:56;;;;;;;0.20;0.20;;;8.30;99.90;;;;;;20707627;28;20282;-71
2020/12/30 22:15:00;;;;;;;0.87;0.83;;;8.10;99.90;;;;;;20712280;28;20677;-71
2020/12/30 22:25:02;;;;;;;1.30;1.07;;;7.60;99.90;;;;;;20711479;28;20194;-72
2020/12/30 22:35:06;;;;;;;1.47;0.37;;;7.60;99.90;;;;;;20708179;28;20541;-71
2020/12/30 22:45:08;;;;;;;0.50;0.50;;;7.50;99.90;;;;;;20708692;28;20588;-70
2020/12/30 22:55:11;;;;;;;0.73;0.53;;;7.90;99.90;;;;;;20708357;28;20211;-72
2020/12/30 23:05:14;;;;;;;2.07;0.80;;;7.70;99.90;;;;;;20707085;28;20198;-72
2020/12/30 23:15:17;;;;;;;0.67;0.63;;;7.10;99.90;;;;;;20709809;28;20333;-71
2020/12/30 23:25:20;;;;;;;0.20;0.13;;;7.00;99.90;;;;;;20707985;28;20206;-71
2020/12/30 23:35:23;;;;;;;0.50;0.50;;;7.10;99.90;;;;;;20640898;28;20227;-72
2020/12/30 23:45:26;;;;;;;0.20;0.10;;;7.10;99.90;;;;;;20623769;28;20227;-71
2020/12/30 23:55:29;;;;;;;0.20;0.10;;;6.90;99.90;;;;;;20627055;28;20233;-73
